createdAt,value
2019-02-12T00:01:31.955Z,97731.66
2019-02-12T00:04:03.665Z,97730.50
2019-02-12T00:06:35.377Z,97729.14
2019-02-12T00:09:09.055Z,97729.38
2019-02-12T00:11:41.006Z,97732.56
2019-02-12T00:14:12.733Z,97752.40
2019-02-12T00:16:44.445Z,97756.81
2019-02-12T00:19:16.155Z,97755.14
2019-02-12T00:21:47.855Z,97762.09
2019-02-12T00:24:19.570Z,97770.84
2019-02-12T00:26:51.524Z,97776.19
2019-02-12T00:29:23.307Z,97768.10
2019-02-12T00:31:55.015Z,97759.89
2019-02-12T00:34:27.479Z,97758.19
2019-02-12T00:37:09.375Z,97758.12
2019-02-12T00:39:41.089Z,97751.11
2019-02-12T00:42:12.820Z,97759.87
2019-02-12T00:44:44.862Z,97752.41
2019-02-12T00:47:16.568Z,97764.21
2019-02-12T00:49:48.273Z,97788.32
2019-02-12T00:52:19.982Z,97789.99
2019-02-12T00:54:51.959Z,97789.61
2019-02-12T00:57:23.918Z,97786.56
2019-02-12T00:59:55.626Z,97787.57
2019-02-12T01:02:27.331Z,97792.12
2019-02-12T01:04:59.046Z,97785.05
2019-02-12T01:07:30.762Z,97792.75
2019-02-12T01:10:02.484Z,97800.13
2019-02-12T01:12:35.162Z,97803.73
2019-02-12T01:15:09.123Z,97806.78
2019-02-12T01:17:41.088Z,97810.56
2019-02-12T01:20:13.839Z,97815.91
2019-02-12T01:22:45.545Z,97821.32
2019-02-12T01:25:17.270Z,97831.22
2019-02-12T01:27:48.980Z,97830.92
2019-02-12T01:30:20.700Z,97825.88
2019-02-12T01:32:52.404Z,97840.91
2019-02-12T01:35:24.123Z,97838.16
2019-02-12T01:37:55.832Z,97832.35
2019-02-12T01:40:27.542Z,97828.08
2019-02-12T01:43:02.055Z,97832.94
2019-02-12T01:45:33.768Z,97834.01
2019-02-12T01:48:05.551Z,97825.23
2019-02-12T01:50:37.258Z,97826.46
2019-02-12T01:53:09.178Z,97828.53
2019-02-12T01:55:41.149Z,97819.44
2019-02-12T01:58:12.949Z,97826.76
2019-02-12T02:00:44.673Z,97824.77
2019-02-12T02:03:16.635Z,97835.14
2019-02-12T02:05:48.352Z,97834.75
2019-02-12T02:08:20.064Z,97832.16
2019-02-12T02:10:51.784Z,97835.11
2019-02-12T02:13:23.574Z,97841.20
2019-02-12T02:15:55.281Z,97849.23
2019-02-12T02:18:26.981Z,97853.63
2019-02-12T02:20:58.774Z,97859.09
2019-02-12T02:23:30.491Z,97854.92
2019-02-12T02:26:02.226Z,97854.82
2019-02-12T02:28:34.192Z,97859.72
2019-02-12T02:31:06.171Z,97868.73
2019-02-12T02:33:38.134Z,97865.97
2019-02-12T02:36:09.854Z,97868.23
2019-02-12T02:38:41.560Z,97867.55
2019-02-12T02:41:13.371Z,97864.79
2019-02-12T02:43:45.327Z,97874.64
2019-02-12T02:46:17.057Z,97872.17
2019-02-12T02:48:48.827Z,97876.21
2019-02-12T02:51:20.595Z,97880.61
2019-02-12T02:53:52.307Z,97879.55
2019-02-12T02:56:24.096Z,97886.36
2019-02-12T02:58:56.084Z,97887.20
2019-02-12T03:01:27.791Z,97887.87
2019-02-12T03:04:00.466Z,97895.64
2019-02-12T03:06:33.243Z,97899.36
2019-02-12T03:09:07.242Z,97900.31
2019-02-12T03:11:39.522Z,97906.13
2019-02-12T03:14:11.245Z,97900.88
2019-02-12T03:16:42.966Z,97904.55
2019-02-12T03:19:14.807Z,97914.00
2019-02-12T03:21:46.794Z,97907.68
2019-02-12T03:24:18.537Z,97907.17
2019-02-12T03:26:50.276Z,97918.55
2019-02-12T03:29:22.018Z,97926.63
2019-02-12T03:31:53.761Z,97934.22
2019-02-12T03:34:25.546Z,97939.78
2019-02-12T03:36:57.236Z,97941.08
2019-02-12T03:39:28.974Z,97936.90
2019-02-12T03:42:00.798Z,97949.24
2019-02-12T03:44:32.637Z,97952.79
2019-02-12T03:47:04.454Z,97952.07
2019-02-12T03:49:36.268Z,97954.30
2019-02-12T03:52:12.988Z,97951.56
2019-02-12T03:54:43.066Z,97952.07
2019-02-12T03:57:14.984Z,97957.80
2019-02-12T03:59:46.789Z,97955.59
2019-02-12T04:02:18.686Z,97962.58
2019-02-12T04:04:50.504Z,97958.64
2019-02-12T04:07:22.756Z,97958.87
2019-02-12T04:09:54.494Z,97961.29
2019-02-12T04:12:26.235Z,97960.17
2019-02-12T04:14:58.260Z,97958.58
2019-02-12T04:17:29.975Z,97961.14
2019-02-12T04:20:01.703Z,97965.56
2019-02-12T04:22:33.532Z,97968.78
2019-02-12T04:25:05.514Z,97967.95
2019-02-12T04:27:37.246Z,97962.66
2019-02-12T04:30:10.546Z,97958.89
2019-02-12T04:32:42.290Z,97955.17
2019-02-12T04:35:14.171Z,97951.96
2019-02-12T04:37:45.909Z,97950.21
2019-02-12T04:40:17.628Z,97957.87
2019-02-12T04:42:49.385Z,97967.50
2019-02-12T04:45:21.117Z,97974.50
2019-02-12T04:47:52.862Z,97971.22
2019-02-12T04:50:24.929Z,97971.89
2019-02-12T04:52:56.809Z,97977.30
2019-02-12T04:55:28.621Z,97972.78
2019-02-12T04:58:00.438Z,97972.13
2019-02-12T05:00:32.169Z,97962.54
2019-02-12T05:03:03.910Z,97957.94
2019-02-12T05:05:35.647Z,97958.66
2019-02-12T05:08:07.463Z,97953.98
2019-02-12T05:10:44.750Z,97956.98
2019-02-12T05:13:16.484Z,97954.20
2019-02-12T05:15:48.216Z,97956.34
2019-02-12T05:18:19.949Z,97955.95
2019-02-12T05:20:51.690Z,97951.56
2019-02-12T05:23:23.422Z,97959.32
2019-02-12T05:25:55.164Z,97958.93
2019-02-12T05:28:27.164Z,97964.66
2019-02-12T05:31:02.020Z,97961.08
2019-02-12T05:33:34.154Z,97965.87
2019-02-12T05:36:05.939Z,97960.19
2019-02-12T05:38:37.680Z,97965.30
2019-02-12T05:41:11.226Z,97967.56
2019-02-12T05:43:42.985Z,97965.87
2019-02-12T05:46:14.824Z,97970.74
2019-02-12T05:48:46.554Z,97967.39
2019-02-12T05:51:18.308Z,97966.81
2019-02-12T05:53:50.050Z,97969.58
2019-02-12T05:56:21.779Z,97974.94
2019-02-12T05:58:53.521Z,97981.93
2019-02-12T06:01:25.247Z,97985.97
2019-02-12T06:03:56.993Z,97981.30
2019-02-12T06:06:28.738Z,97984.41
2019-02-12T06:09:00.477Z,97988.05
2019-02-12T06:11:34.138Z,97984.38
2019-02-12T06:14:06.021Z,97987.81
2019-02-12T06:16:37.769Z,97991.55
2019-02-12T06:19:11.585Z,97992.12
2019-02-12T06:21:43.207Z,97997.00
2019-02-12T06:24:15.211Z,98002.70
2019-02-12T06:26:47.476Z,98006.70
2019-02-12T06:29:19.311Z,98007.06
2019-02-12T06:31:51.044Z,98004.74
2019-02-12T06:34:22.809Z,98009.33
2019-02-12T06:36:54.622Z,97997.67
2019-02-12T06:39:26.369Z,97997.09
2019-02-12T06:41:58.098Z,98002.52
2019-02-12T06:44:29.838Z,98002.79
2019-02-12T06:47:01.576Z,98004.27
2019-02-12T06:49:33.338Z,98006.13
2019-02-12T06:52:05.140Z,98008.72
2019-02-12T06:54:36.882Z,98004.27
2019-02-12T06:57:09.864Z,98008.93
2019-02-12T06:59:42.579Z,98017.16
2019-02-12T07:03:07.808Z,98025.17
2019-02-12T07:05:49.127Z,98026.10
2019-02-12T07:08:56.255Z,98028.23
2019-02-12T07:12:34.765Z,98040.41
2019-02-12T07:16:04.033Z,98040.38
2019-02-12T07:19:25.197Z,98038.19
2019-02-12T07:22:38.232Z,98048.03
2019-02-12T07:25:28.851Z,98041.83
2019-02-12T07:28:49.705Z,98050.23
2019-02-12T07:32:16.066Z,98060.35
2019-02-12T07:35:43.817Z,98056.70
2019-02-12T07:38:57.125Z,98058.39
2019-02-12T07:41:48.769Z,98065.59
2019-02-12T07:44:41.188Z,98079.52
2019-02-12T07:48:04.520Z,98081.13
2019-02-12T07:50:57.431Z,98077.19
2019-02-12T07:54:37.665Z,98087.80
2019-02-12T07:58:28.452Z,98093.45
2019-02-12T08:01:53.846Z,98099.97
2019-02-12T08:05:02.180Z,98111.70
2019-02-12T08:08:23.055Z,98107.34
2019-02-12T08:11:53.324Z,98110.91
2019-02-12T08:15:05.152Z,98108.14
2019-02-12T08:18:24.891Z,98109.50
2019-02-12T08:21:35.250Z,98117.58
2019-02-12T08:24:51.676Z,98126.28
2019-02-12T08:28:36.758Z,98122.25
2019-02-12T08:36:19.203Z,98127.29
2019-02-12T08:39:23.751Z,98133.80
2019-02-12T08:42:40.506Z,98143.63
2019-02-12T08:46:05.933Z,98142.47
2019-02-12T08:49:27.676Z,98149.51
2019-02-12T08:52:41.037Z,98142.97
2019-02-12T08:56:03.599Z,98142.23
2019-02-12T08:59:26.627Z,98143.21
2019-02-12T09:02:38.021Z,98150.09
2019-02-12T09:06:06.876Z,98146.59
2019-02-12T09:09:30.053Z,98154.81
2019-02-12T09:12:57.668Z,98155.66
2019-02-12T09:16:37.708Z,98161.36
2019-02-12T09:19:47.166Z,98162.41
2019-02-12T09:23:16.068Z,98163.56
2019-02-12T09:26:18.855Z,98172.25
2019-02-12T09:30:02.518Z,98170.83
2019-02-12T09:33:31.906Z,98168.30
2019-02-12T09:37:16.745Z,98172.44
2019-02-12T09:40:55.319Z,98174.58
2019-02-12T09:44:43.962Z,98173.64
2019-02-12T09:48:05.351Z,98177.59
2019-02-12T09:51:44.077Z,98188.48
2019-02-12T09:55:04.961Z,98188.02
2019-02-12T09:58:02.067Z,98194.75
2019-02-12T10:00:53.791Z,98195.53
2019-02-12T10:04:33.715Z,98194.63
2019-02-12T10:07:29.314Z,98199.97
2019-02-12T10:10:27.185Z,98202.56
2019-02-12T10:13:43.426Z,98203.14
2019-02-12T10:16:48.613Z,98206.06
2019-02-12T10:19:57.589Z,98214.09
2019-02-12T10:24:02.877Z,98209.56
2019-02-12T10:26:35.855Z,98217.85
2019-02-12T10:29:29.438Z,98218.25
2019-02-12T10:32:08.258Z,98227.23
2019-02-12T10:34:32.630Z,98224.34
2019-02-12T10:37:04.437Z,98225.78
2019-02-12T10:39:36.289Z,98236.41
2019-02-12T10:42:08.045Z,98231.06
2019-02-12T10:44:39.780Z,98233.03
2019-02-12T10:47:11.687Z,98229.66
2019-02-12T10:49:43.429Z,98229.66
2019-02-12T10:52:15.167Z,98230.16
2019-02-12T10:54:47.163Z,98238.79
2019-02-12T10:57:19.147Z,98222.66
2019-02-12T10:59:50.904Z,98226.45
2019-02-12T11:02:22.636Z,98232.36
2019-02-12T11:04:54.472Z,98232.21
2019-02-12T11:07:26.221Z,98231.43
2019-02-12T11:09:57.954Z,98228.77
2019-02-12T11:12:30.062Z,98225.78
2019-02-12T11:15:02.176Z,98227.63
2019-02-12T11:17:34.455Z,98219.48
2019-02-12T11:20:07.077Z,98229.01
2019-02-12T11:22:46.011Z,98223.20
2019-02-12T11:25:18.143Z,98225.95
2019-02-12T11:27:59.723Z,98228.95
2019-02-12T11:30:55.753Z,98228.16
2019-02-12T11:33:10.513Z,98233.50
2019-02-12T11:35:42.630Z,98230.06
2019-02-12T11:38:14.418Z,98230.75
2019-02-12T11:40:46.282Z,98239.72
2019-02-12T11:43:18.007Z,98236.85
2019-02-12T11:45:49.974Z,98240.90
2019-02-12T11:48:21.749Z,98236.11
2019-02-12T11:50:53.773Z,98243.34
2019-02-12T11:53:25.607Z,98243.80
2019-02-12T11:55:57.416Z,98245.42
2019-02-12T11:58:29.176Z,98240.51
2019-02-12T12:01:03.308Z,98245.27
2019-02-12T12:03:35.076Z,98235.61
2019-02-12T12:06:06.982Z,98248.13
2019-02-12T12:08:38.782Z,98247.98
2019-02-12T12:11:10.618Z,98246.11
2019-02-12T12:13:42.378Z,98248.72
2019-02-12T12:16:14.337Z,98236.73
2019-02-12T12:18:46.322Z,98238.83
2019-02-12T12:21:18.184Z,98246.55
2019-02-12T12:23:49.993Z,98238.70
2019-02-12T12:26:21.741Z,98247.05
2019-02-12T12:28:53.539Z,98245.20
2019-02-12T12:31:25.358Z,98244.23
2019-02-12T12:33:57.092Z,98245.53
2019-02-12T12:36:28.861Z,98241.51
2019-02-12T12:39:00.964Z,98241.34
2019-02-12T12:41:33.017Z,98236.31
2019-02-12T12:44:05.157Z,98243.55
2019-02-12T12:46:36.970Z,98250.73
2019-02-12T12:49:09.206Z,98255.02
2019-02-12T12:51:40.942Z,98253.55
2019-02-12T12:54:12.789Z,98252.52
2019-02-12T12:56:44.847Z,98247.81
2019-02-12T12:59:16.605Z,98247.06
2019-02-12T13:01:48.364Z,98248.30
2019-02-12T13:04:21.066Z,98259.14
2019-02-12T13:06:52.820Z,98248.36
2019-02-12T13:09:24.579Z,98244.17
2019-02-12T13:11:56.337Z,98245.02
2019-02-12T13:14:28.078Z,98252.36
2019-02-12T13:17:00.137Z,98248.33
2019-02-12T13:19:31.888Z,98244.17
2019-02-12T13:22:03.687Z,98239.17
2019-02-12T13:24:35.580Z,98242.26
2019-02-12T13:27:07.389Z,98245.25
2019-02-12T13:29:39.328Z,98245.83
2019-02-12T13:32:11.063Z,98249.83
2019-02-12T13:34:43.085Z,98249.53
2019-02-12T13:37:14.883Z,98243.27
2019-02-12T13:39:47.013Z,98242.05
2019-02-12T13:42:18.826Z,98245.27
2019-02-12T13:44:50.564Z,98243.44
2019-02-12T13:47:22.296Z,98237.16
2019-02-12T13:49:54.044Z,98252.06
2019-02-12T13:52:25.852Z,98259.82
2019-02-12T13:54:57.661Z,98258.66
2019-02-12T13:57:29.401Z,98254.66
2019-02-12T14:00:01.295Z,98257.65
2019-02-12T14:02:34.579Z,98263.30
2019-02-12T14:05:08.954Z,98261.23
2019-02-12T14:07:40.769Z,98263.08
2019-02-12T14:10:12.801Z,98275.42
2019-02-12T14:12:44.543Z,98269.41
2019-02-12T14:15:16.384Z,98271.63
2019-02-12T14:17:48.202Z,98267.95
2019-02-12T14:20:19.922Z,98267.56
2019-02-12T14:22:51.739Z,98275.36
2019-02-12T14:25:25.707Z,98271.33
2019-02-12T14:27:57.051Z,98274.45
2019-02-12T14:30:28.860Z,98268.34
2019-02-12T14:33:01.162Z,98268.95
2019-02-12T14:35:32.892Z,98272.63
2019-02-12T14:38:04.722Z,98270.33
2019-02-12T14:40:36.476Z,98275.75
2019-02-12T14:43:14.104Z,98268.95
2019-02-12T14:45:42.975Z,98271.81
2019-02-12T14:48:14.873Z,98274.12
2019-02-12T14:50:46.685Z,98270.74
2019-02-12T14:53:18.437Z,98275.48
2019-02-12T14:55:50.301Z,98276.07
2019-02-12T14:58:22.058Z,98280.36
2019-02-12T15:00:54.050Z,98271.03
2019-02-12T15:03:25.785Z,98273.34
2019-02-12T15:05:57.627Z,98277.01
2019-02-12T15:08:29.368Z,98268.73
2019-02-12T15:11:01.106Z,98268.27
2019-02-12T15:13:32.913Z,98274.31
2019-02-12T15:16:04.819Z,98271.20
2019-02-12T15:18:36.726Z,98268.82
2019-02-12T15:21:09.845Z,98269.37
2019-02-12T15:23:41.593Z,98271.83
2019-02-12T15:26:13.499Z,98274.82
2019-02-12T15:28:45.339Z,98278.72
2019-02-12T15:31:17.218Z,98280.41
2019-02-12T15:33:48.956Z,98283.75
2019-02-12T15:36:20.760Z,98287.92
2019-02-12T15:38:52.498Z,98282.53
2019-02-12T15:41:24.297Z,98290.16
2019-02-12T15:43:56.126Z,98295.36
2019-02-12T15:46:27.860Z,98295.92
2019-02-12T15:48:59.601Z,98300.27
2019-02-12T15:51:31.334Z,98300.73
2019-02-12T15:54:03.167Z,98300.11
2019-02-12T15:56:34.893Z,98307.14
2019-02-12T15:59:06.753Z,98306.12
2019-02-12T16:01:38.557Z,98310.25
2019-02-12T16:04:10.304Z,98297.88
2019-02-12T16:06:42.904Z,98303.63
2019-02-12T16:09:17.655Z,98299.63
2019-02-12T16:11:49.154Z,98299.47
2019-02-12T16:14:20.977Z,98305.45
2019-02-12T16:16:54.081Z,98309.34
2019-02-12T16:19:25.912Z,98311.84
2019-02-12T16:21:57.678Z,98311.33
2019-02-12T16:24:29.424Z,98324.16
2019-02-12T16:27:01.481Z,98316.66
2019-02-12T16:29:33.237Z,98321.52
2019-02-12T16:32:05.046Z,98329.66
2019-02-12T16:34:37.750Z,98335.56
2019-02-12T16:37:09.486Z,98336.89
2019-02-12T16:39:41.252Z,98337.94
2019-02-12T16:42:13.048Z,98342.98
2019-02-12T16:44:44.802Z,98348.05
2019-02-12T16:47:16.550Z,98349.80
2019-02-12T16:49:48.293Z,98354.52
2019-02-12T16:52:21.079Z,98355.06
2019-02-12T16:54:52.991Z,98363.66
2019-02-12T16:57:24.733Z,98358.52
2019-02-12T16:59:56.473Z,98358.61
2019-02-12T17:02:28.214Z,98364.72
2019-02-12T17:05:00.349Z,98374.05
2019-02-12T17:07:33.242Z,98377.22
2019-02-12T17:10:05.488Z,98385.91
2019-02-12T17:12:37.348Z,98386.27
2019-02-12T17:15:10.614Z,98385.97
2019-02-12T17:17:42.505Z,98389.31
2019-02-12T17:20:16.969Z,98391.23
2019-02-12T17:22:49.062Z,98390.63
2019-02-12T17:25:20.827Z,98398.53
2019-02-12T17:27:52.907Z,98402.72
2019-02-12T17:30:24.721Z,98404.41
2019-02-12T17:32:57.838Z,98412.31
2019-02-12T17:35:29.536Z,98411.06
2019-02-12T17:38:01.259Z,98418.07
2019-02-12T17:40:32.999Z,98420.84
2019-02-12T17:43:04.750Z,98424.86
2019-02-12T17:45:36.641Z,98425.70
2019-02-12T17:48:08.373Z,98420.45
2019-02-12T17:50:40.267Z,98419.72
2019-02-12T17:53:13.092Z,98420.45
2019-02-12T17:55:44.952Z,98426.17
2019-02-12T17:58:16.682Z,98422.48
2019-02-12T18:00:48.499Z,98422.87
2019-02-12T18:03:20.308Z,98423.61
2019-02-12T18:05:53.049Z,98417.97
2019-02-12T18:08:24.868Z,98424.02
2019-02-12T18:10:56.612Z,98421.80
2019-02-12T18:13:28.599Z,98419.03
2019-02-12T18:16:00.425Z,98421.45
2019-02-12T18:18:32.151Z,98426.27
2019-02-12T18:21:03.978Z,98431.52
2019-02-12T18:23:35.723Z,98432.76
2019-02-12T18:26:07.447Z,98433.78
2019-02-12T18:28:39.260Z,98435.19
2019-02-12T18:31:11.143Z,98436.56
2019-02-12T18:33:42.890Z,98438.92
2019-02-12T18:36:14.697Z,98442.13
2019-02-12T18:38:46.433Z,98439.20
2019-02-12T18:41:18.168Z,98432.47
2019-02-12T18:43:49.992Z,98438.23
2019-02-12T18:46:21.727Z,98439.56
2019-02-12T18:48:53.439Z,98440.34
2019-02-12T18:51:26.207Z,98439.84
2019-02-12T18:53:58.011Z,98432.05
2019-02-12T18:56:29.808Z,98436.17
2019-02-12T18:59:01.569Z,98433.97
2019-02-12T19:01:33.290Z,98443.33
2019-02-12T19:04:05.137Z,98442.03
2019-02-12T19:06:36.957Z,98450.22
2019-02-12T19:09:12.958Z,98460.07
2019-02-12T19:11:53.998Z,98451.77
2019-02-12T19:14:18.140Z,98456.06
2019-02-12T19:16:49.858Z,98460.52
2019-02-12T19:19:21.611Z,98461.52
2019-02-12T19:21:53.334Z,98462.03
2019-02-12T19:24:25.084Z,98467.55
2019-02-12T19:26:56.910Z,98459.75
2019-02-12T19:29:28.651Z,98460.20
2019-02-12T19:32:00.787Z,98464.50
2019-02-12T19:34:32.530Z,98475.80
2019-02-12T19:37:04.408Z,98470.74
2019-02-12T19:39:36.144Z,98469.56
2019-02-12T19:42:07.875Z,98459.11
2019-02-12T19:44:39.617Z,98461.45
2019-02-12T19:47:11.347Z,98467.24
2019-02-12T19:49:43.088Z,98469.84
2019-02-12T19:52:14.888Z,98470.80
2019-02-12T19:54:46.700Z,98469.11
2019-02-12T19:57:18.441Z,98466.96
2019-02-12T19:59:50.263Z,98473.80
2019-02-12T20:02:21.999Z,98468.00
2019-02-12T20:04:54.576Z,98466.19
2019-02-12T20:07:26.569Z,98469.58
2019-02-12T20:09:58.308Z,98475.67
2019-02-12T20:12:31.072Z,98483.98
2019-02-12T20:15:02.819Z,98481.12
2019-02-12T20:17:34.548Z,98481.64
2019-02-12T20:20:07.995Z,98474.30
2019-02-12T20:22:40.131Z,98479.19
2019-02-12T20:25:12.996Z,98473.84
2019-02-12T20:27:44.869Z,98484.10
2019-02-12T20:30:16.753Z,98475.16
2019-02-12T20:32:48.549Z,98471.91
2019-02-12T20:35:20.333Z,98455.69
2019-02-12T20:37:52.134Z,98468.91
2019-02-12T20:40:23.952Z,98463.45
2019-02-12T20:42:55.755Z,98462.88
2019-02-12T20:45:29.164Z,98460.72
2019-02-12T20:48:00.897Z,98465.91
2019-02-12T20:50:32.781Z,98474.98
2019-02-12T20:53:04.578Z,98481.38
2019-02-12T20:55:36.602Z,98483.84
2019-02-12T20:58:09.348Z,98478.34
2019-02-12T21:00:41.146Z,98479.19
2019-02-12T21:03:12.955Z,98485.69
2019-02-12T21:05:44.784Z,98493.09
2019-02-12T21:08:16.590Z,98491.00
2019-02-12T21:10:48.320Z,98487.89
2019-02-12T21:13:20.045Z,98490.61
2019-02-12T21:15:51.837Z,98490.34
2019-02-12T21:18:23.571Z,98491.30
2019-02-12T21:20:55.377Z,98497.79
2019-02-12T21:23:27.766Z,98496.45
2019-02-12T21:25:59.563Z,98496.97
2019-02-12T21:28:31.437Z,98503.22
2019-02-12T21:31:03.516Z,98493.54
2019-02-12T21:33:35.313Z,98485.93
2019-02-12T21:36:07.144Z,98487.23
2019-02-12T21:38:38.887Z,98487.61
2019-02-12T21:41:11.417Z,98487.16
2019-02-12T21:43:43.316Z,98489.90
2019-02-12T21:46:15.465Z,98488.33
2019-02-12T21:48:47.271Z,98489.30
2019-02-12T21:51:19.021Z,98484.95
2019-02-12T21:53:51.013Z,98490.84
2019-02-12T21:56:22.841Z,98491.78
2019-02-12T21:58:54.580Z,98480.49
2019-02-12T22:01:26.406Z,98482.73
2019-02-12T22:03:58.210Z,98482.36
2019-02-12T22:06:29.969Z,98490.20
2019-02-12T22:09:01.706Z,98487.76
2019-02-12T22:11:34.426Z,98489.56
2019-02-12T22:14:07.207Z,98485.81
2019-02-12T22:16:39.002Z,98484.63
2019-02-12T22:19:10.739Z,98489.58
2019-02-12T22:21:42.502Z,98494.48
2019-02-12T22:24:14.271Z,98500.67
2019-02-12T22:26:46.021Z,98500.98
2019-02-12T22:29:17.751Z,98502.28
2019-02-12T22:31:49.525Z,98498.58
2019-02-12T22:34:21.258Z,98499.25
2019-02-12T22:36:53.027Z,98496.47
2019-02-12T22:39:24.752Z,98491.83
2019-02-12T22:41:56.568Z,98496.19
2019-02-12T22:44:28.316Z,98490.28
2019-02-12T22:47:00.090Z,98493.59
2019-02-12T22:49:31.827Z,98496.63
2019-02-12T22:52:03.655Z,98501.32
2019-02-12T22:54:35.468Z,98498.52
2019-02-12T22:57:07.303Z,98498.33
2019-02-12T22:59:39.031Z,98501.38
2019-02-12T23:02:11.387Z,98503.86
2019-02-12T23:04:43.222Z,98511.66
2019-02-12T23:07:15.415Z,98513.45
2019-02-12T23:09:47.296Z,98516.70
2019-02-12T23:12:19.129Z,98513.77
2019-02-12T23:14:50.864Z,98513.82
2019-02-12T23:17:22.698Z,98507.44
2019-02-12T23:19:54.434Z,98494.46
2019-02-12T23:22:26.183Z,98496.41
2019-02-12T23:24:57.910Z,98485.31
2019-02-12T23:27:29.732Z,98484.58
2019-02-12T23:30:01.479Z,98484.89
2019-02-12T23:32:33.477Z,98487.92
2019-02-12T23:35:05.701Z,98492.20
2019-02-12T23:37:37.441Z,98491.19
2019-02-12T23:40:09.804Z,98492.94
2019-02-12T23:42:41.784Z,98494.39
2019-02-12T23:45:13.802Z,98498.61
2019-02-12T23:47:45.733Z,98499.81
2019-02-12T23:50:19.372Z,98508.88
2019-02-12T23:52:51.108Z,98508.75
2019-02-12T23:55:22.987Z,98520.25
2019-02-12T23:57:54.967Z,98519.25
